Coatesville, Pennsylvania
Current Conditions -  °F | °C
As of 4:35 AM on Sunday 26 Oct 2014 (Local Time) from KMQS Reporting Station
Clear Clear  
Wind Chill: 54°   Ceiling: Unl
Heat Index: 54°   Visibility: 10mi
Dew Point: 45°   Wind: 9mph
Humidity: 72%   Direction: 300°WNW
Pressure: 29.65"   Gusts: NA
Location:  39.98°N, 75.82°W
Report Text: KMQS 260835Z AUTO 30008KT 10SM CLR 12/07 A2965 RMK AO2
Loading
Personal Weather Stations






























Interactive Weather Map
Tropical Storm Tracking
New forecast layout! Learn more

10-Day Weather Forecast

Advertisements
Track Severe Weather on mobile